Mountain Rest, South Carolina
Current Conditions -  °F | °C
As of 4:15 AM on Wednesday 28 Jan 2015 (Local Time) from KTOC Reporting Station
Clear Clear  
Wind Chill: 29°   Ceiling: Unl
Heat Index: 34°   Visibility: 10mi
Dew Point: 22°   Wind: 6mph
Humidity: 63%   Direction: 330°NNW
Pressure: 30.09"   Gusts: NA
Location:  34.85°N, 83.17°W
Report Text: KTOC 280915Z AUTO 33005KT 10SM CLR 01/M05 A3009 RMK AO2 T00111053
Loading
Personal Weather Stations






























Interactive Weather Map New forecast layout! Learn more

10-Day Weather Forecast

Advertisements
Track Severe Weather on mobile